Thursday, May 24, 2018, 5:10 AM CDT
Back to Local

KDKB, De Kalb, De Kalb Taylor Municipal Airport

Location: Dekalb, IL, United States Lat: 41.932
Local Time: 5:10 AM CDT (10:10 GMT) Lon: -88.708
Time Zone: US/Central Elev: 915 ft

Show me the last for .
Show Decoded

2018-05-24 04:35 METAR KDKB 240935Z AUTO 11003KT 10SM CLR 14/11 A3019 RMK AO2 T01420110 =
2018-05-24 04:15 METAR KDKB 240915Z AUTO 12003KT 10SM CLR 15/11 A3018 RMK AO2 T01450110 =
2018-05-24 03:55 METAR KDKB 240855Z AUTO 13004KT 10SM CLR 15/11 A3018 RMK AO2 T01450109 =
2018-05-24 03:35 METAR KDKB 240835Z AUTO 12005KT 10SM CLR 14/11 A3018 RMK AO2 T01440107 =
2018-05-24 03:15 METAR KDKB 240815Z AUTO 11004KT 10SM CLR 15/11 A3018 RMK AO2 T01450108 =
2018-05-24 02:55 METAR KDKB 240755Z AUTO 11003KT 10SM CLR 15/11 A3018 RMK AO2 T01450108 =
2018-05-24 02:35 METAR KDKB 240735Z AUTO 00000KT 10SM CLR 15/11 A3018 RMK AO2 T01460107 =
2018-05-24 02:15 METAR KDKB 240715Z AUTO 11004KT 10SM CLR 15/11 A3018 RMK AO2 T01500107 =
2018-05-24 01:55 METAR KDKB 240655Z AUTO 10003KT 10SM CLR 15/11 A3018 RMK AO2 T01510106 =
2018-05-24 01:35 METAR KDKB 240635Z AUTO 11004KT 10SM CLR 16/10 A3018 RMK AO2 T01570103 =
2018-05-24 01:15 METAR KDKB 240615Z AUTO 12006KT 10SM CLR 16/10 A3018 RMK AO2 T01630102 =
2018-05-24 00:55 METAR KDKB 240555Z AUTO 12004KT 10SM CLR 16/11 A3018 RMK AO2 T01620106 10246
                 20161 402550106 =
2018-05-24 00:35 METAR KDKB 240535Z AUTO 11004KT 10SM CLR 17/11 A3019 RMK AO2 T01650112 =
2018-05-24 00:15 METAR KDKB 240515Z AUTO 00000KT 10SM CLR 17/11 A3019 RMK AO2 T01650111 =
2018-05-23 23:55 METAR KDKB 240455Z AUTO 11004KT 10SM CLR 17/11 A3020 RMK AO2 T01710110 =
2018-05-23 23:35 METAR KDKB 240435Z AUTO 10005KT 10SM CLR 17/11 A3020 RMK AO2 T01740112 =
2018-05-23 23:15 METAR KDKB 240415Z AUTO 09006KT 10SM CLR 18/11 A3019 RMK AO2 T01770111 =
2018-05-23 22:55 METAR KDKB 240355Z AUTO 09006KT 10SM CLR 18/12 A3020 RMK AO2 T01770116 =
2018-05-23 22:35 METAR KDKB 240335Z AUTO 10005KT 10SM CLR 18/12 A3019 RMK AO2 T01810123 =
2018-05-23 22:15 METAR KDKB 240315Z AUTO 10005KT 10SM CLR 19/12 A3019 RMK AO2 T01870116 =
2018-05-23 21:55 METAR KDKB 240255Z AUTO 11006KT 10SM CLR 20/11 A3019 RMK AO2 T01950114 =
2018-05-23 21:35 METAR KDKB 240235Z AUTO 12006KT 10SM CLR 20/12 A3019 RMK AO2 T02000120 =
2018-05-23 21:20 METAR KDKB 240220Z AUTO 12006KT 10SM CLR 20/13 A3018 RMK AO2 T02030125 =
2018-05-23 20:55 METAR KDKB 240155Z AUTO 11005KT 10SM CLR 21/14 A3018 RMK AO2 T02090137 =
2018-05-23 20:35 METAR KDKB 240135Z AUTO 10006KT 10SM CLR 21/14 A3017 RMK AO2 T02130144 =
2018-05-23 20:15 METAR KDKB 240115Z AUTO 00000KT 10SM CLR 24/15 A3017 RMK AO2 T02350145 =
2018-05-23 19:55 METAR KDKB 240055Z AUTO 00000KT 10SM CLR 24/15 A3016 RMK AO2 T02360153 =
2018-05-23 19:35 METAR KDKB 240035Z AUTO 00000KT 10SM CLR 24/16 A3016 RMK AO2 T02400155 =
2018-05-23 19:15 METAR KDKB 240015Z AUTO 11003KT 10SM CLR 24/16 A3015 RMK AO2 T02430161 =
2018-05-23 18:55 METAR KDKB 232355Z AUTO 15004KT 10SM CLR 25/15 A3015 RMK AO2 T02480150 10255
                 20229 =
2018-05-23 18:35 METAR KDKB 232335Z AUTO 00000KT 10SM CLR 25/15 A3015 RMK AO2 T02520145 =
2018-05-23 18:15 METAR KDKB 232315Z AUTO 12004KT 10SM CLR 25/15 A3015 RMK AO2 T02510145 =
2018-05-23 17:55 METAR KDKB 232255Z AUTO 18005KT 10SM CLR 25/16 A3015 RMK AO2 T02540160 =
2018-05-23 17:35 METAR KDKB 232235Z AUTO 15003KT 10SM CLR 25/15 A3016 RMK AO2 T02520151 =
2018-05-23 17:15 METAR KDKB 232215Z AUTO 15003KT 10SM CLR 25/16 A3016 RMK AO2 T02520155 =
2018-05-23 16:55 METAR KDKB 232155Z AUTO 12004KT 10SM CLR 25/15 A3016 RMK AO2 T02530154 =
2018-05-23 16:35 METAR KDKB 232135Z AUTO 14005KT 10SM CLR 25/15 A3016 RMK AO2 T02530152 =
2018-05-23 16:15 METAR KDKB 232115Z AUTO 11003KT 10SM CLR 25/15 A3016 RMK AO2 T02530154 =
2018-05-23 15:55 METAR KDKB 232055Z AUTO 13003KT 10SM CLR 25/15 A3017 RMK AO2 T02510154 =
2018-05-23 15:35 METAR KDKB 232035Z AUTO 11003KT 10SM CLR 25/16 A3017 RMK AO2 T02500159 =
2018-05-23 15:15 METAR KDKB 232015Z AUTO 15004KT 10SM CLR 25/15 A3019 RMK AO2 T02470145 =
2018-05-23 14:55 METAR KDKB 231955Z AUTO 09005KT 10SM CLR 25/16 A3019 RMK AO2 T02470161 =
2018-05-23 14:35 METAR KDKB 231935Z AUTO 15005KT 10SM CLR 24/15 A3020 RMK AO2 T02400146 =
2018-05-23 14:15 METAR KDKB 231915Z AUTO 12005KT 10SM CLR 24/15 A3021 RMK AO2 T02390151 =
2018-05-23 13:55 METAR KDKB 231855Z AUTO 14004KT 10SM CLR 24/15 A3021 RMK AO2 T02370152 =
2018-05-23 13:35 METAR KDKB 231835Z AUTO 00000KT 10SM CLR 23/15 A3021 RMK AO2 T02330150 =
2018-05-23 13:15 METAR KDKB 231815Z AUTO 17005KT 10SM CLR 23/15 A3022 RMK AO2 T02310154 =
2018-05-23 12:55 METAR KDKB 231755Z AUTO 17003KT 10SM CLR 23/15 A3022 RMK AO2 T02290149 10229
                 20120 =
2018-05-23 12:35 METAR KDKB 231735Z AUTO 19003KT 10SM CLR 23/15 A3022 RMK AO2 T02270147 =
2018-05-23 12:15 METAR KDKB 231715Z AUTO 00000KT 10SM CLR 22/15 A3022 RMK AO2 T02220147 =
2018-05-23 11:55 METAR KDKB 231655Z AUTO 00000KT 10SM CLR 22/15 A3022 RMK AO2 T02180151 =
2018-05-23 11:35 METAR KDKB 231635Z AUTO 20004KT 10SM CLR 22/15 A3023 RMK AO2 T02180150 =
2018-05-23 11:15 METAR KDKB 231615Z AUTO 18005KT 10SM CLR 21/15 A3022 RMK AO2 T02110145 =
2018-05-23 10:55 METAR KDKB 231555Z AUTO 14004KT 10SM CLR 21/14 A3023 RMK AO2 T02090141 =
2018-05-23 10:35 METAR KDKB 231535Z AUTO 18004KT 10SM CLR 21/15 A3022 RMK AO2 T02070151 =
2018-05-23 10:15 METAR KDKB 231515Z AUTO 16004KT 10SM CLR 20/15 A3022 RMK AO2 T02020151 =
2018-05-23 09:55 METAR KDKB 231455Z AUTO 00000KT 10SM CLR 20/15 A3022 RMK AO2 T01970154 =
2018-05-23 09:35 METAR KDKB 231435Z AUTO 12003KT 10SM CLR 19/16 A3022 RMK AO2 T01930157 =
2018-05-23 09:15 METAR KDKB 231415Z AUTO 10004KT 10SM CLR 18/15 A3022 RMK AO2 T01830154 =
2018-05-23 08:55 METAR KDKB 231355Z AUTO 00000KT 5SM BR CLR 17/16 A3022 RMK AO2 T01740159 =
2018-05-23 08:35 METAR KDKB 231335Z AUTO 00000KT 4SM BR CLR 17/16 A3022 RMK AO2 T01690159 =
2018-05-23 08:15 METAR KDKB 231315Z AUTO 00000KT 3SM BR CLR 16/15 A3021 RMK AO2 T01610154 =
2018-05-23 07:55 METAR KDKB 231255Z AUTO 00000KT 2 1/2SM BR CLR 15/15 A3021 RMK AO2 T01540152 =
2018-05-23 07:35 METAR KDKB 231235Z AUTO 20003KT 2SM BR CLR 15/15 A3021 RMK AO2 T01480147 =
2018-05-23 07:15 METAR KDKB 231215Z AUTO 00000KT 1 1/4SM BR VV007 14/14 A3020 RMK AO2 T01390139 =
2018-05-23 06:55 METAR KDKB 231155Z AUTO 22003KT 2 1/2SM BR CLR 12/12 A3020 RMK AO2 T01180118
                 10134 20106 =
2018-05-23 06:35 METAR KDKB 231135Z AUTO 00000KT 1 1/4SM BR SCT002 12/12 A3019 RMK AO2 T01170117
                 =
2018-05-23 06:15 METAR KDKB 231115Z AUTO 11003KT 1/4SM FG OVC002 11/11 A3018 RMK AO2 T01130112 =
2018-05-23 05:55 METAR KDKB 231055Z AUTO 00000KT M1/4SM FG OVC002 11/11 A3017 RMK AO2 T01110111 =
2018-05-23 05:35 METAR KDKB 231035Z AUTO 00000KT M1/4SM FG OVC002 12/12 A3017 RMK AO2 T01170117 =
2018-05-23 05:15 METAR KDKB 231015Z AUTO 00000KT 1/4SM FG OVC002 11/11 A3016 RMK AO2 T01100110 =

Support USWX by starting your Amazon purchase here.